createdAt,value
2017-10-15T00:03:41.816Z,102125.55
2017-10-15T00:08:44.936Z,102126.89
2017-10-15T00:13:47.805Z,102134.53
2017-10-15T00:18:50.372Z,102140.38
2017-10-15T00:23:52.958Z,102129.70
2017-10-15T00:28:56.349Z,102129.45
2017-10-15T00:33:59.069Z,102129.80
2017-10-15T00:39:01.821Z,102124.58
2017-10-15T00:44:04.615Z,102131.16
2017-10-15T00:49:07.529Z,102121.53
2017-10-15T00:54:10.616Z,102124.11
2017-10-15T00:59:13.652Z,102126.11
2017-10-15T01:04:18.260Z,102115.88
2017-10-15T01:09:21.219Z,102110.25
2017-10-15T01:14:27.639Z,102104.78
2017-10-15T01:19:30.652Z,102109.41
2017-10-15T01:24:33.598Z,102115.06
2017-10-15T01:29:36.302Z,102112.11
2017-10-15T01:34:43.030Z,102104.84
2017-10-15T01:39:46.071Z,102094.94
2017-10-15T01:44:48.676Z,102107.59
2017-10-15T01:49:51.368Z,102103.36
2017-10-15T01:54:53.962Z,102109.77
2017-10-15T01:59:57.222Z,102103.26
2017-10-15T02:05:00.406Z,102110.42
2017-10-15T02:10:04.189Z,102114.52
2017-10-15T02:15:07.386Z,102115.07
2017-10-15T02:20:11.206Z,102112.38
2017-10-15T02:25:14.081Z,102110.52
2017-10-15T02:30:17.059Z,102108.78
2017-10-15T02:35:19.943Z,102105.16
2017-10-15T02:40:23.148Z,102101.86
2017-10-15T02:45:26.022Z,102099.94
2017-10-15T02:50:31.180Z,102106.87
2017-10-15T02:55:35.140Z,102098.61
2017-10-15T03:00:37.882Z,102099.50
2017-10-15T03:05:40.872Z,102097.80
2017-10-15T03:10:43.372Z,102100.94
2017-10-15T03:15:46.265Z,102088.78
2017-10-15T03:20:49.113Z,102091.92
2017-10-15T03:25:51.857Z,102096.45
2017-10-15T03:30:55.492Z,102098.39
2017-10-15T03:35:59.651Z,102098.38
2017-10-15T03:41:04.857Z,102098.48
2017-10-15T03:46:12.817Z,102100.41
2017-10-15T03:51:20.675Z,102100.40
2017-10-15T03:56:25.232Z,102100.36
2017-10-15T04:01:30.930Z,102095.08
2017-10-15T04:06:34.129Z,102092.98
2017-10-15T04:11:38.120Z,102090.52
2017-10-15T04:16:41.883Z,102087.69
2017-10-15T04:21:43.984Z,102092.39
2017-10-15T04:26:48.034Z,102088.34
2017-10-15T04:31:49.983Z,102091.19
2017-10-15T04:36:55.778Z,102089.51
2017-10-15T04:42:02.980Z,102084.05
2017-10-15T04:47:09.215Z,102083.63
2017-10-15T04:52:13.957Z,102078.45
2017-10-15T04:57:16.674Z,102070.92
2017-10-15T05:02:19.460Z,102075.32
2017-10-15T05:07:23.087Z,102066.63
2017-10-15T05:12:25.037Z,102064.34
2017-10-15T05:17:33.919Z,102062.20
2017-10-15T05:22:36.608Z,102061.33
2017-10-15T05:27:38.531Z,102066.16
2017-10-15T05:32:41.221Z,102069.48
2017-10-15T05:37:43.139Z,102070.60
2017-10-15T05:42:45.052Z,102066.16
2017-10-15T05:47:47.020Z,102067.67
2017-10-15T05:52:49.061Z,102073.31
2017-10-15T05:57:51.016Z,102064.55
2017-10-15T06:02:56.257Z,102056.31
2017-10-15T06:07:59.226Z,102059.72
2017-10-15T06:13:01.149Z,102060.80
2017-10-15T06:18:04.527Z,102066.30
2017-10-15T06:23:07.496Z,102064.13
2017-10-15T06:28:09.516Z,102059.49
2017-10-15T06:33:11.529Z,102062.46
2017-10-15T06:38:15.098Z,102059.95
2017-10-15T06:43:18.183Z,102062.17
2017-10-15T06:48:22.178Z,102054.16
2017-10-15T06:53:26.722Z,102046.02
2017-10-15T06:58:29.659Z,102047.63
2017-10-15T07:03:31.999Z,102052.78
2017-10-15T07:08:35.139Z,102049.87
2017-10-15T07:13:38.150Z,102053.41
2017-10-15T07:18:43.224Z,102035.66
2017-10-15T07:23:46.472Z,102050.89
2017-10-15T07:28:49.340Z,102051.13
2017-10-15T07:33:52.039Z,102047.87
2017-10-15T07:38:59.584Z,102038.55
2017-10-15T07:44:02.423Z,102047.61
2017-10-15T07:49:06.624Z,102026.48
2017-10-15T07:54:09.406Z,102038.81
2017-10-15T07:59:15.577Z,102036.22
2017-10-15T08:04:21.424Z,102034.42
2017-10-15T08:09:27.495Z,102029.58
2017-10-15T08:14:35.377Z,102033.07
2017-10-15T08:19:41.066Z,102022.02
2017-10-15T08:24:47.736Z,102020.36
2017-10-15T08:29:50.760Z,102012.66
2017-10-15T08:34:53.522Z,102012.64
2017-10-15T08:39:59.001Z,102007.83
2017-10-15T08:45:02.132Z,102006.55
2017-10-15T08:50:06.287Z,102003.64
2017-10-15T08:55:09.021Z,101999.50
2017-10-15T09:00:12.172Z,102001.87
2017-10-15T09:05:16.796Z,101998.27
2017-10-15T09:10:19.200Z,101997.06
2017-10-15T09:15:21.182Z,102000.12
2017-10-15T09:20:23.912Z,102001.56
2017-10-15T09:25:26.216Z,101991.84
2017-10-15T09:30:28.208Z,101983.77
2017-10-15T09:35:30.921Z,101979.65
2017-10-15T09:40:32.844Z,101976.66
2017-10-15T09:45:34.939Z,101972.34
2017-10-15T09:50:37.774Z,101976.76
2017-10-15T09:55:40.331Z,101970.67
2017-10-15T10:00:48.454Z,101969.03
2017-10-15T10:05:50.397Z,101965.23
2017-10-15T10:10:52.291Z,101957.68
2017-10-15T10:15:55.031Z,101956.47
2017-10-15T10:20:58.094Z,101953.03
2017-10-15T10:26:02.158Z,101948.08
2017-10-15T10:31:04.116Z,101937.34
2017-10-15T10:36:06.552Z,101926.33
2017-10-15T10:41:08.488Z,101918.14
2017-10-15T10:46:10.413Z,101915.73
2017-10-15T10:51:12.386Z,101917.59
2017-10-15T10:56:14.459Z,101916.64
2017-10-15T11:01:16.403Z,101913.88
2017-10-15T11:06:18.347Z,101906.80
2017-10-15T11:11:20.371Z,101901.56
2017-10-15T11:16:22.293Z,101901.66
2017-10-15T11:21:28.200Z,101888.69
2017-10-15T11:26:35.833Z,101873.40
2017-10-15T11:31:41.918Z,101867.47
2017-10-15T11:36:43.877Z,101855.79
2017-10-15T11:41:45.811Z,101849.19
2017-10-15T11:46:48.176Z,101849.52
2017-10-15T11:51:50.091Z,101848.03
2017-10-15T11:56:57.223Z,101844.45
2017-10-15T12:01:59.536Z,101849.15
2017-10-15T12:07:01.464Z,101840.45
2017-10-15T12:12:06.361Z,101834.83
2017-10-15T12:17:10.293Z,101822.71
2017-10-15T12:22:13.256Z,101817.35
2017-10-15T12:27:17.296Z,101817.41
2017-10-15T12:32:19.294Z,101809.77
2017-10-15T12:37:22.089Z,101808.93
2017-10-15T12:42:24.028Z,101805.75
2017-10-15T12:47:29.572Z,101803.17
2017-10-15T12:52:31.500Z,101796.84
2017-10-15T12:57:33.460Z,101794.20
2017-10-15T13:02:35.397Z,101798.47
2017-10-15T13:07:37.327Z,101794.14
2017-10-15T13:12:43.231Z,101796.02
2017-10-15T13:17:45.215Z,101789.49
2017-10-15T13:22:47.432Z,101783.14
2017-10-15T13:27:49.431Z,101783.09
2017-10-15T13:32:51.404Z,101772.55
2017-10-15T13:37:53.796Z,101771.20
2017-10-15T13:42:55.728Z,101770.26
2017-10-15T13:47:57.694Z,101761.56
2017-10-15T13:53:01.362Z,101750.86
2017-10-15T13:58:03.367Z,101740.67
2017-10-15T14:03:05.994Z,101739.38
2017-10-15T14:08:08.074Z,101732.96
2017-10-15T14:13:10.749Z,101727.88
2017-10-15T14:18:12.698Z,101730.72
2017-10-15T14:23:16.798Z,101726.78
2017-10-15T14:28:18.755Z,101727.88
2017-10-15T14:33:21.952Z,101727.88
2017-10-15T14:38:24.822Z,101733.94
2017-10-15T14:43:30.696Z,101727.02
2017-10-15T14:48:32.662Z,101719.73
2017-10-15T14:53:35.509Z,101714.61
2017-10-15T14:58:38.522Z,101716.85
2017-10-15T15:03:40.507Z,101714.63
2017-10-15T15:08:43.370Z,101708.48
2017-10-15T15:13:45.500Z,101706.31
2017-10-15T15:18:48.388Z,101711.39
2017-10-15T15:23:50.302Z,101707.66
2017-10-15T15:28:52.335Z,101705.16
2017-10-15T15:33:54.247Z,101710.93
2017-10-15T15:38:56.215Z,101711.75
2017-10-15T15:43:59.138Z,101705.59
2017-10-15T15:49:01.946Z,101710.10
2017-10-15T15:54:04.771Z,101709.64
2017-10-15T15:59:07.544Z,101700.84
2017-10-15T16:04:10.347Z,101698.13
2017-10-15T16:09:13.191Z,101695.44
2017-10-15T16:14:16.129Z,101701.53
2017-10-15T16:19:18.899Z,101696.97
2017-10-15T16:24:21.680Z,101695.91
2017-10-15T16:29:24.631Z,101704.19
2017-10-15T16:34:27.449Z,101699.45
2017-10-15T16:39:31.083Z,101693.88
2017-10-15T16:44:34.639Z,101700.20
2017-10-15T16:49:39.318Z,101709.31
2017-10-15T16:54:47.367Z,101707.36
2017-10-15T16:59:52.385Z,101706.56
2017-10-15T17:04:55.101Z,101719.77
2017-10-15T17:09:57.823Z,101705.59
2017-10-15T17:15:00.544Z,101711.39
2017-10-15T17:20:03.685Z,101708.72
2017-10-15T17:25:05.758Z,101712.86
2017-10-15T17:30:11.426Z,101714.78
2017-10-15T17:35:13.596Z,101717.15
2017-10-15T17:40:15.516Z,101711.13
2017-10-15T17:45:17.415Z,101706.61
2017-10-15T17:50:22.962Z,101717.05
2017-10-15T17:55:28.942Z,101712.05
2017-10-15T18:00:33.194Z,101705.74
2017-10-15T18:05:36.928Z,101711.33
2017-10-15T18:10:44.177Z,101697.48
2017-10-15T18:15:49.123Z,101704.80
2017-10-15T18:20:51.407Z,101700.02
2017-10-15T18:25:53.391Z,101690.50
2017-10-15T18:30:57.206Z,101691.91
2017-10-15T18:35:59.374Z,101685.13
2017-10-15T18:41:02.694Z,101684.77
2017-10-15T18:46:05.846Z,101680.91
2017-10-15T18:51:09.119Z,101674.83
2017-10-15T18:56:12.500Z,101689.77
2017-10-15T19:01:15.549Z,101681.13
2017-10-15T19:06:18.722Z,101669.98
2017-10-15T19:11:22.924Z,101679.07
2017-10-15T19:16:29.461Z,101683.98
2017-10-15T19:21:32.712Z,101677.22
2017-10-15T19:26:35.750Z,101678.05
2017-10-15T19:31:39.984Z,101682.95
2017-10-15T19:36:43.688Z,101680.35
2017-10-15T19:41:46.850Z,101677.30
2017-10-15T19:46:49.882Z,101675.11
2017-10-15T19:51:53.884Z,101686.56
2017-10-15T19:56:57.609Z,101691.96
2017-10-15T20:02:02.865Z,101687.48
2017-10-15T20:07:06.192Z,101691.63
2017-10-15T20:12:09.600Z,101692.79
2017-10-15T20:17:12.471Z,101688.92
2017-10-15T20:22:15.401Z,101691.61
2017-10-15T20:27:19.180Z,101683.89
2017-10-15T20:32:22.224Z,101680.05
2017-10-15T20:37:24.303Z,101685.56
2017-10-15T20:42:26.249Z,101684.55
2017-10-15T20:47:28.249Z,101689.57
2017-10-15T20:52:30.281Z,101685.95
2017-10-15T20:57:32.937Z,101691.37
2017-10-15T21:02:35.880Z,101696.47
2017-10-15T21:07:38.678Z,101692.19
2017-10-15T21:12:41.567Z,101696.23
2017-10-15T21:17:44.427Z,101690.73
2017-10-15T21:22:47.084Z,101693.12
2017-10-15T21:27:49.052Z,101697.41
2017-10-15T21:32:51.811Z,101710.14
2017-10-15T21:37:53.732Z,101705.59
2017-10-15T21:42:55.724Z,101712.67
2017-10-15T21:47:57.829Z,101712.58
2017-10-15T21:52:59.888Z,101713.99
2017-10-15T21:58:02.846Z,101718.95
2017-10-15T22:03:04.792Z,101717.47
2017-10-15T22:08:06.956Z,101720.25
2017-10-15T22:13:08.928Z,101712.27
2017-10-15T22:18:17.657Z,101715.69
2017-10-15T22:23:19.603Z,101713.69
2017-10-15T22:28:21.534Z,101716.92
2017-10-15T22:33:24.204Z,101716.92
2017-10-15T22:38:27.171Z,101716.61
2017-10-15T22:43:30.717Z,101716.16
2017-10-15T22:48:33.486Z,101714.42
2017-10-15T22:53:36.203Z,101719.78
2017-10-15T22:58:39.062Z,101718.22
2017-10-15T23:03:42.058Z,101703.37
2017-10-15T23:08:45.283Z,101707.17
2017-10-15T23:13:48.330Z,101709.42
2017-10-15T23:18:51.880Z,101708.56
2017-10-15T23:23:54.732Z,101706.66
2017-10-15T23:28:58.229Z,101713.97
2017-10-15T23:34:00.992Z,101715.58
2017-10-15T23:39:03.914Z,101724.48
2017-10-15T23:44:07.640Z,101726.34
2017-10-15T23:49:09.671Z,101733.11
2017-10-15T23:54:11.702Z,101725.45
2017-10-15T23:59:14.465Z,101727.97
